sensor_id;sensor_type;location;lat;lon;timestamp;P1;durP1;ratioP1;P2;durP2;ratioP2
67278;SDS011;54193;53.746;10.058;2023-03-23T00:02:30;19.63;;;7.32;;
67278;SDS011;54193;53.746;10.058;2023-03-23T00:05:20;20.10;;;8.00;;
67278;SDS011;54193;53.746;10.058;2023-03-23T00:08:07;18.05;;;6.88;;
67278;SDS011;54193;53.746;10.058;2023-03-23T00:10:57;16.58;;;6.75;;
67278;SDS011;54193;53.746;10.058;2023-03-23T00:13:43;20.33;;;7.70;;
67278;SDS011;54193;53.746;10.058;2023-03-23T00:16:31;17.65;;;7.70;;
67278;SDS011;54193;53.746;10.058;2023-03-23T00:19:18;22.73;;;7.97;;
67278;SDS011;54193;53.746;10.058;2023-03-23T00:22:04;20.70;;;8.05;;
67278;SDS011;54193;53.746;10.058;2023-03-23T00:24:51;16.17;;;7.07;;
67278;SDS011;54193;53.746;10.058;2023-03-23T00:27:37;21.98;;;8.85;;
67278;SDS011;54193;53.746;10.058;2023-03-23T00:30:23;24.90;;;10.25;;
67278;SDS011;54193;53.746;10.058;2023-03-23T00:33:09;20.13;;;8.13;;
67278;SDS011;54193;53.746;10.058;2023-03-23T00:35:57;24.80;;;9.20;;
67278;SDS011;54193;53.746;10.058;2023-03-23T00:38:43;22.27;;;8.60;;
67278;SDS011;54193;53.746;10.058;2023-03-23T00:41:29;22.10;;;7.63;;
67278;SDS011;54193;53.746;10.058;2023-03-23T00:44:16;25.45;;;9.57;;
67278;SDS011;54193;53.746;10.058;2023-03-23T00:47:02;21.45;;;9.07;;
67278;SDS011;54193;53.746;10.058;2023-03-23T00:49:48;23.85;;;10.15;;
67278;SDS011;54193;53.746;10.058;2023-03-23T00:52:35;25.77;;;9.20;;
67278;SDS011;54193;53.746;10.058;2023-03-23T00:55:21;26.88;;;10.52;;
67278;SDS011;54193;53.746;10.058;2023-03-23T00:58:06;36.08;;;9.48;;
67278;SDS011;54193;53.746;10.058;2023-03-23T01:00:53;27.43;;;9.50;;
67278;SDS011;54193;53.746;10.058;2023-03-23T01:03:39;28.23;;;9.93;;
67278;SDS011;54193;53.746;10.058;2023-03-23T01:06:24;28.33;;;10.65;;
67278;SDS011;54193;53.746;10.058;2023-03-23T01:09:11;29.42;;;12.13;;
67278;SDS011;54193;53.746;10.058;2023-03-23T01:12:00;27.33;;;10.00;;
67278;SDS011;54193;53.746;10.058;2023-03-23T01:14:45;20.90;;;8.75;;
67278;SDS011;54193;53.746;10.058;2023-03-23T01:17:33;27.73;;;10.65;;
67278;SDS011;54193;53.746;10.058;2023-03-23T01:20:18;29.03;;;10.80;;
67278;SDS011;54193;53.746;10.058;2023-03-23T01:23:04;28.83;;;11.73;;
67278;SDS011;54193;53.746;10.058;2023-03-23T01:25:50;30.70;;;11.57;;
67278;SDS011;54193;53.746;10.058;2023-03-23T01:28:37;30.40;;;12.23;;
67278;SDS011;54193;53.746;10.058;2023-03-23T01:31:24;30.40;;;11.85;;
67278;SDS011;54193;53.746;10.058;2023-03-23T01:34:11;25.85;;;10.18;;
67278;SDS011;54193;53.746;10.058;2023-03-23T01:36:57;30.50;;;11.82;;
67278;SDS011;54193;53.746;10.058;2023-03-23T01:39:42;24.15;;;10.27;;
67278;SDS011;54193;53.746;10.058;2023-03-23T01:42:32;20.88;;;8.77;;
67278;SDS011;54193;53.746;10.058;2023-03-23T01:45:22;26.67;;;10.00;;
67278;SDS011;54193;53.746;10.058;2023-03-23T01:48:11;28.97;;;10.70;;
67278;SDS011;54193;53.746;10.058;2023-03-23T01:51:02;22.33;;;8.73;;
67278;SDS011;54193;53.746;10.058;2023-03-23T01:54:00;29.83;;;11.70;;
67278;SDS011;54193;53.746;10.058;2023-03-23T01:56:50;29.73;;;10.40;;
67278;SDS011;54193;53.746;10.058;2023-03-23T01:59:41;31.77;;;11.75;;
67278;SDS011;54193;53.746;10.058;2023-03-23T02:02:33;28.98;;;11.23;;
67278;SDS011;54193;53.746;10.058;2023-03-23T02:05:26;27.30;;;9.63;;
67278;SDS011;54193;53.746;10.058;2023-03-23T02:08:18;35.25;;;12.55;;
67278;SDS011;54193;53.746;10.058;2023-03-23T02:11:23;30.20;;;12.07;;
67278;SDS011;54193;53.746;10.058;2023-03-23T02:14:08;33.75;;;12.77;;
67278;SDS011;54193;53.746;10.058;2023-03-23T02:34:56;27.33;;;11.38;;
67278;SDS011;54193;53.746;10.058;2023-03-23T02:37:46;27.50;;;11.60;;
67278;SDS011;54193;53.746;10.058;2023-03-23T02:40:38;36.63;;;15.18;;
67278;SDS011;54193;53.746;10.058;2023-03-23T02:43:27;29.60;;;11.00;;
67278;SDS011;54193;53.746;10.058;2023-03-23T02:46:18;26.60;;;10.50;;
67278;SDS011;54193;53.746;10.058;2023-03-23T02:49:06;35.13;;;12.80;;
67278;SDS011;54193;53.746;10.058;2023-03-23T02:51:54;31.15;;;11.77;;
67278;SDS011;54193;53.746;10.058;2023-03-23T02:54:43;33.87;;;14.50;;
67278;SDS011;54193;53.746;10.058;2023-03-23T02:57:30;28.15;;;11.15;;
67278;SDS011;54193;53.746;10.058;2023-03-23T03:00:17;32.13;;;12.95;;
67278;SDS011;54193;53.746;10.058;2023-03-23T03:03:04;31.33;;;13.15;;
67278;SDS011;54193;53.746;10.058;2023-03-23T03:05:56;34.85;;;13.93;;
67278;SDS011;54193;53.746;10.058;2023-03-23T03:09:02;35.63;;;14.40;;
67278;SDS011;54193;53.746;10.058;2023-03-23T03:11:55;33.63;;;12.85;;
67278;SDS011;54193;53.746;10.058;2023-03-23T03:15:06;31.27;;;12.87;;
67278;SDS011;54193;53.746;10.058;2023-03-23T03:18:21;33.55;;;12.52;;
67278;SDS011;54193;53.746;10.058;2023-03-23T03:21:14;22.25;;;9.32;;
67278;SDS011;54193;53.746;10.058;2023-03-23T03:24:02;28.87;;;11.63;;
67278;SDS011;54193;53.746;10.058;2023-03-23T03:26:50;32.97;;;13.45;;
67278;SDS011;54193;53.746;10.058;2023-03-23T03:29:39;34.58;;;14.68;;
67278;SDS011;54193;53.746;10.058;2023-03-23T03:32:29;33.03;;;12.90;;
67278;SDS011;54193;53.746;10.058;2023-03-23T03:35:20;32.33;;;13.38;;
67278;SDS011;54193;53.746;10.058;2023-03-23T03:38:09;34.13;;;15.45;;
67278;SDS011;54193;53.746;10.058;2023-03-23T03:40:56;32.28;;;12.63;;
67278;SDS011;54193;53.746;10.058;2023-03-23T03:43:42;35.00;;;14.40;;
67278;SDS011;54193;53.746;10.058;2023-03-23T03:46:29;30.08;;;11.85;;
67278;SDS011;54193;53.746;10.058;2023-03-23T03:49:16;38.67;;;15.50;;
67278;SDS011;54193;53.746;10.058;2023-03-23T03:52:01;34.00;;;14.20;;
67278;SDS011;54193;53.746;10.058;2023-03-23T03:54:47;33.90;;;14.27;;
67278;SDS011;54193;53.746;10.058;2023-03-23T03:57:33;30.30;;;13.43;;
67278;SDS011;54193;53.746;10.058;2023-03-23T04:00:19;36.45;;;15.48;;
67278;SDS011;54193;53.746;10.058;2023-03-23T04:03:06;35.33;;;14.25;;
67278;SDS011;54193;53.746;10.058;2023-03-23T04:05:55;35.80;;;13.93;;
67278;SDS011;54193;53.746;10.058;2023-03-23T04:08:41;33.95;;;15.00;;
67278;SDS011;54193;53.746;10.058;2023-03-23T04:11:28;36.40;;;15.17;;
67278;SDS011;54193;53.746;10.058;2023-03-23T04:14:13;33.53;;;13.88;;
67278;SDS011;54193;53.746;10.058;2023-03-23T04:16:59;35.75;;;14.57;;
67278;SDS011;54193;53.746;10.058;2023-03-23T04:19:45;37.73;;;15.67;;
67278;SDS011;54193;53.746;10.058;2023-03-23T04:22:30;36.95;;;14.90;;
67278;SDS011;54193;53.746;10.058;2023-03-23T04:25:18;32.90;;;13.95;;
67278;SDS011;54193;53.746;10.058;2023-03-23T04:28:07;32.63;;;14.50;;
67278;SDS011;54193;53.746;10.058;2023-03-23T04:30:55;31.58;;;13.75;;
67278;SDS011;54193;53.746;10.058;2023-03-23T04:33:41;33.17;;;14.30;;
67278;SDS011;54193;53.746;10.058;2023-03-23T04:36:27;34.42;;;14.07;;
67278;SDS011;54193;53.746;10.058;2023-03-23T04:39:14;29.60;;;13.27;;
67278;SDS011;54193;53.746;10.058;2023-03-23T04:42:01;33.40;;;14.10;;
67278;SDS011;54193;53.746;10.058;2023-03-23T04:44:47;28.73;;;13.48;;
67278;SDS011;54193;53.746;10.058;2023-03-23T04:47:39;31.10;;;14.00;;
67278;SDS011;54193;53.746;10.058;2023-03-23T04:50:27;29.58;;;13.32;;
67278;SDS011;54193;53.746;10.058;2023-03-23T04:53:16;29.20;;;12.93;;
67278;SDS011;54193;53.746;10.058;2023-03-23T04:56:03;29.42;;;13.95;;
67278;SDS011;54193;53.746;10.058;2023-03-23T04:58:48;29.08;;;13.93;;
67278;SDS011;54193;53.746;10.058;2023-03-23T05:01:34;29.42;;;13.13;;
67278;SDS011;54193;53.746;10.058;2023-03-23T05:04:22;31.00;;;13.23;;
67278;SDS011;54193;53.746;10.058;2023-03-23T05:07:10;29.67;;;13.07;;
67278;SDS011;54193;53.746;10.058;2023-03-23T05:09:56;30.73;;;14.07;;
67278;SDS011;54193;53.746;10.058;2023-03-23T05:12:42;21.98;;;9.13;;
67278;SDS011;54193;53.746;10.058;2023-03-23T05:15:29;29.63;;;12.10;;
67278;SDS011;54193;53.746;10.058;2023-03-23T05:18:15;25.13;;;12.05;;
67278;SDS011;54193;53.746;10.058;2023-03-23T05:21:01;30.25;;;12.77;;
67278;SDS011;54193;53.746;10.058;2023-03-23T05:23:48;27.25;;;11.80;;
67278;SDS011;54193;53.746;10.058;2023-03-23T05:26:40;27.52;;;12.55;;
67278;SDS011;54193;53.746;10.058;2023-03-23T05:29:26;29.92;;;12.73;;
67278;SDS011;54193;53.746;10.058;2023-03-23T05:32:12;30.75;;;13.52;;
67278;SDS011;54193;53.746;10.058;2023-03-23T05:34:58;28.07;;;12.53;;
67278;SDS011;54193;53.746;10.058;2023-03-23T05:37:44;30.33;;;13.20;;
67278;SDS011;54193;53.746;10.058;2023-03-23T05:40:30;31.92;;;14.55;;
67278;SDS011;54193;53.746;10.058;2023-03-23T05:43:16;29.93;;;13.67;;
67278;SDS011;54193;53.746;10.058;2023-03-23T05:46:01;30.33;;;14.57;;
67278;SDS011;54193;53.746;10.058;2023-03-23T05:48:48;28.45;;;12.80;;
67278;SDS011;54193;53.746;10.058;2023-03-23T05:51:33;29.95;;;13.23;;
67278;SDS011;54193;53.746;10.058;2023-03-23T05:54:20;29.88;;;13.77;;
67278;SDS011;54193;53.746;10.058;2023-03-23T05:57:05;26.70;;;13.05;;
67278;SDS011;54193;53.746;10.058;2023-03-23T05:59:51;26.33;;;12.13;;
67278;SDS011;54193;53.746;10.058;2023-03-23T06:02:37;25.83;;;12.17;;
67278;SDS011;54193;53.746;10.058;2023-03-23T06:05:23;30.08;;;14.18;;
67278;SDS011;54193;53.746;10.058;2023-03-23T06:08:11;21.75;;;10.50;;
67278;SDS011;54193;53.746;10.058;2023-03-23T06:10:57;23.60;;;11.17;;
67278;SDS011;54193;53.746;10.058;2023-03-23T06:13:43;21.48;;;10.63;;
67278;SDS011;54193;53.746;10.058;2023-03-23T06:16:29;26.83;;;12.65;;
67278;SDS011;54193;53.746;10.058;2023-03-23T06:19:15;27.55;;;12.82;;
67278;SDS011;54193;53.746;10.058;2023-03-23T06:22:00;26.88;;;12.88;;
67278;SDS011;54193;53.746;10.058;2023-03-23T06:24:47;24.50;;;11.73;;
67278;SDS011;54193;53.746;10.058;2023-03-23T06:27:34;20.38;;;9.60;;
67278;SDS011;54193;53.746;10.058;2023-03-23T06:30:20;22.63;;;9.93;;
67278;SDS011;54193;53.746;10.058;2023-03-23T06:33:06;22.30;;;10.07;;
67278;SDS011;54193;53.746;10.058;2023-03-23T06:35:54;21.88;;;9.95;;
67278;SDS011;54193;53.746;10.058;2023-03-23T06:38:41;22.30;;;9.77;;
67278;SDS011;54193;53.746;10.058;2023-03-23T06:41:26;15.35;;;7.78;;
67278;SDS011;54193;53.746;10.058;2023-03-23T06:44:12;21.48;;;11.40;;
67278;SDS011;54193;53.746;10.058;2023-03-23T06:46:58;19.77;;;10.07;;
67278;SDS011;54193;53.746;10.058;2023-03-23T06:49:44;20.77;;;9.57;;
67278;SDS011;54193;53.746;10.058;2023-03-23T06:52:29;17.75;;;7.75;;
67278;SDS011;54193;53.746;10.058;2023-03-23T06:55:15;13.82;;;7.00;;
67278;SDS011;54193;53.746;10.058;2023-03-23T06:58:02;14.97;;;6.70;;
67278;SDS011;54193;53.746;10.058;2023-03-23T07:00:48;15.95;;;6.85;;
67278;SDS011;54193;53.746;10.058;2023-03-23T07:03:33;14.18;;;7.07;;
67278;SDS011;54193;53.746;10.058;2023-03-23T07:06:20;11.60;;;6.10;;
67278;SDS011;54193;53.746;10.058;2023-03-23T07:09:06;14.38;;;7.70;;
67278;SDS011;54193;53.746;10.058;2023-03-23T07:11:52;12.95;;;6.15;;
67278;SDS011;54193;53.746;10.058;2023-03-23T07:14:38;12.48;;;5.68;;
67278;SDS011;54193;53.746;10.058;2023-03-23T07:17:24;11.13;;;5.43;;
67278;SDS011;54193;53.746;10.058;2023-03-23T07:20:10;14.20;;;7.18;;
67278;SDS011;54193;53.746;10.058;2023-03-23T07:22:56;10.80;;;5.22;;
67278;SDS011;54193;53.746;10.058;2023-03-23T07:25:42;11.37;;;6.00;;
67278;SDS011;54193;53.746;10.058;2023-03-23T07:28:29;11.55;;;6.10;;
67278;SDS011;54193;53.746;10.058;2023-03-23T07:31:15;11.32;;;5.90;;
67278;SDS011;54193;53.746;10.058;2023-03-23T07:34:01;11.13;;;5.97;;
67278;SDS011;54193;53.746;10.058;2023-03-23T07:36:48;11.15;;;5.43;;
67278;SDS011;54193;53.746;10.058;2023-03-23T07:39:35;10.52;;;5.00;;
67278;SDS011;54193;53.746;10.058;2023-03-23T07:42:22;11.40;;;5.22;;
67278;SDS011;54193;53.746;10.058;2023-03-23T07:45:08;12.52;;;6.68;;
67278;SDS011;54193;53.746;10.058;2023-03-23T07:47:55;10.55;;;5.43;;
67278;SDS011;54193;53.746;10.058;2023-03-23T07:50:41;12.90;;;5.95;;
67278;SDS011;54193;53.746;10.058;2023-03-23T07:53:26;12.30;;;5.40;;
67278;SDS011;54193;53.746;10.058;2023-03-23T07:56:12;9.10;;;5.20;;
67278;SDS011;54193;53.746;10.058;2023-03-23T07:58:59;8.48;;;4.45;;
67278;SDS011;54193;53.746;10.058;2023-03-23T08:01:46;9.40;;;4.97;;
67278;SDS011;54193;53.746;10.058;2023-03-23T08:04:31;8.20;;;3.95;;
67278;SDS011;54193;53.746;10.058;2023-03-23T08:07:22;8.65;;;4.65;;
67278;SDS011;54193;53.746;10.058;2023-03-23T08:10:08;10.13;;;4.90;;
67278;SDS011;54193;53.746;10.058;2023-03-23T08:12:56;8.43;;;3.60;;
67278;SDS011;54193;53.746;10.058;2023-03-23T08:15:42;10.55;;;4.20;;
67278;SDS011;54193;53.746;10.058;2023-03-23T08:18:28;9.10;;;3.92;;
67278;SDS011;54193;53.746;10.058;2023-03-23T08:21:14;7.73;;;3.00;;
67278;SDS011;54193;53.746;10.058;2023-03-23T08:24:00;7.32;;;2.70;;
67278;SDS011;54193;53.746;10.058;2023-03-23T08:26:46;5.97;;;2.58;;
67278;SDS011;54193;53.746;10.058;2023-03-23T08:29:32;5.00;;;2.03;;
67278;SDS011;54193;53.746;10.058;2023-03-23T08:32:18;6.28;;;1.60;;
67278;SDS011;54193;53.746;10.058;2023-03-23T08:35:04;4.30;;;1.42;;
67278;SDS011;54193;53.746;10.058;2023-03-23T08:37:50;4.20;;;1.30;;
67278;SDS011;54193;53.746;10.058;2023-03-23T08:40:37;4.30;;;1.30;;
67278;SDS011;54193;53.746;10.058;2023-03-23T08:43:24;4.18;;;1.38;;
67278;SDS011;54193;53.746;10.058;2023-03-23T08:46:10;3.22;;;1.05;;
67278;SDS011;54193;53.746;10.058;2023-03-23T08:48:56;6.03;;;1.30;;
67278;SDS011;54193;53.746;10.058;2023-03-23T08:51:42;3.78;;;1.30;;
67278;SDS011;54193;53.746;10.058;2023-03-23T08:54:28;5.13;;;1.40;;
67278;SDS011;54193;53.746;10.058;2023-03-23T08:57:15;3.70;;;1.40;;
67278;SDS011;54193;53.746;10.058;2023-03-23T09:00:02;4.50;;;1.17;;
67278;SDS011;54193;53.746;10.058;2023-03-23T09:02:59;5.35;;;1.70;;
67278;SDS011;54193;53.746;10.058;2023-03-23T09:05:45;4.47;;;2.03;;
67278;SDS011;54193;53.746;10.058;2023-03-23T09:08:31;5.18;;;1.90;;
67278;SDS011;54193;53.746;10.058;2023-03-23T09:11:17;5.53;;;2.00;;
67278;SDS011;54193;53.746;10.058;2023-03-23T09:14:03;3.72;;;1.65;;
67278;SDS011;54193;53.746;10.058;2023-03-23T09:16:50;6.33;;;2.13;;
67278;SDS011;54193;53.746;10.058;2023-03-23T09:19:36;5.30;;;2.10;;
67278;SDS011;54193;53.746;10.058;2023-03-23T09:22:22;6.10;;;2.10;;
67278;SDS011;54193;53.746;10.058;2023-03-23T09:25:08;6.50;;;2.00;;
67278;SDS011;54193;53.746;10.058;2023-03-23T09:27:56;8.48;;;2.15;;
67278;SDS011;54193;53.746;10.058;2023-03-23T09:30:43;5.32;;;1.90;;
67278;SDS011;54193;53.746;10.058;2023-03-23T09:33:30;6.70;;;2.25;;
67278;SDS011;54193;53.746;10.058;2023-03-23T09:36:19;6.38;;;2.10;;
67278;SDS011;54193;53.746;10.058;2023-03-23T09:39:06;5.28;;;2.08;;
67278;SDS011;54193;53.746;10.058;2023-03-23T09:42:06;4.70;;;2.20;;
67278;SDS011;54193;53.746;10.058;2023-03-23T09:48:16;7.80;;;2.40;;
67278;SDS011;54193;53.746;10.058;2023-03-23T09:51:44;6.00;;;2.25;;
67278;SDS011;54193;53.746;10.058;2023-03-23T09:54:37;5.70;;;2.20;;
67278;SDS011;54193;53.746;10.058;2023-03-23T10:00:18;9.07;;;2.42;;
67278;SDS011;54193;53.746;10.058;2023-03-23T10:06:02;5.78;;;2.28;;
67278;SDS011;54193;53.746;10.058;2023-03-23T10:08:52;4.57;;;1.83;;
67278;SDS011;54193;53.746;10.058;2023-03-23T10:18:02;8.55;;;2.22;;
67278;SDS011;54193;53.746;10.058;2023-03-23T10:21:11;8.50;;;2.60;;
67278;SDS011;54193;53.746;10.058;2023-03-23T10:24:03;7.30;;;1.70;;
67278;SDS011;54193;53.746;10.058;2023-03-23T10:26:57;5.72;;;1.60;;
67278;SDS011;54193;53.746;10.058;2023-03-23T10:29:53;6.57;;;1.70;;
67278;SDS011;54193;53.746;10.058;2023-03-23T10:32:47;7.03;;;2.10;;
67278;SDS011;54193;53.746;10.058;2023-03-23T10:35:39;7.15;;;1.90;;
67278;SDS011;54193;53.746;10.058;2023-03-23T10:38:36;6.03;;;1.50;;
67278;SDS011;54193;53.746;10.058;2023-03-23T10:41:23;9.18;;;1.73;;
67278;SDS011;54193;53.746;10.058;2023-03-23T10:44:10;7.43;;;1.60;;
67278;SDS011;54193;53.746;10.058;2023-03-23T10:47:00;6.38;;;1.77;;
67278;SDS011;54193;53.746;10.058;2023-03-23T10:49:51;5.13;;;1.70;;
67278;SDS011;54193;53.746;10.058;2023-03-23T10:52:51;6.53;;;1.70;;
67278;SDS011;54193;53.746;10.058;2023-03-23T10:55:40;8.40;;;1.70;;
67278;SDS011;54193;53.746;10.058;2023-03-23T10:58:30;7.70;;;1.90;;
67278;SDS011;54193;53.746;10.058;2023-03-23T11:01:20;8.75;;;1.77;;
67278;SDS011;54193;53.746;10.058;2023-03-23T11:04:16;8.77;;;1.67;;
67278;SDS011;54193;53.746;10.058;2023-03-23T11:07:02;9.48;;;1.73;;
67278;SDS011;54193;53.746;10.058;2023-03-23T11:09:52;10.38;;;1.73;;
67278;SDS011;54193;53.746;10.058;2023-03-23T11:12:43;11.87;;;2.17;;
67278;SDS011;54193;53.746;10.058;2023-03-23T11:15:32;10.98;;;1.73;;
67278;SDS011;54193;53.746;10.058;2023-03-23T11:18:42;8.82;;;1.55;;
67278;SDS011;54193;53.746;10.058;2023-03-23T11:21:28;9.03;;;2.03;;
67278;SDS011;54193;53.746;10.058;2023-03-23T11:24:13;7.28;;;1.23;;
67278;SDS011;54193;53.746;10.058;2023-03-23T11:26:59;8.63;;;1.70;;
67278;SDS011;54193;53.746;10.058;2023-03-23T11:29:59;9.50;;;1.70;;
67278;SDS011;54193;53.746;10.058;2023-03-23T11:32:53;9.45;;;1.70;;
67278;SDS011;54193;53.746;10.058;2023-03-23T11:35:43;9.57;;;1.90;;
67278;SDS011;54193;53.746;10.058;2023-03-23T11:38:30;5.13;;;1.55;;
67278;SDS011;54193;53.746;10.058;2023-03-23T11:41:18;12.43;;;1.83;;
67278;SDS011;54193;53.746;10.058;2023-03-23T11:44:09;9.18;;;1.80;;
67278;SDS011;54193;53.746;10.058;2023-03-23T11:47:11;12.52;;;2.42;;
67278;SDS011;54193;53.746;10.058;2023-03-23T11:50:24;9.13;;;2.10;;
67278;SDS011;54193;53.746;10.058;2023-03-23T11:53:20;9.98;;;1.83;;
67278;SDS011;54193;53.746;10.058;2023-03-23T11:56:29;10.93;;;2.10;;
67278;SDS011;54193;53.746;10.058;2023-03-23T11:59:34;13.27;;;1.90;;
67278;SDS011;54193;53.746;10.058;2023-03-23T12:05:49;10.90;;;2.83;;
67278;SDS011;54193;53.746;10.058;2023-03-23T12:08:45;13.50;;;2.58;;
67278;SDS011;54193;53.746;10.058;2023-03-23T12:11:41;9.47;;;2.60;;
67278;SDS011;54193;53.746;10.058;2023-03-23T12:17:54;15.32;;;3.92;;
67278;SDS011;54193;53.746;10.058;2023-03-23T12:21:22;8.07;;;2.43;;
67278;SDS011;54193;53.746;10.058;2023-03-23T12:36:19;9.13;;;2.03;;
67278;SDS011;54193;53.746;10.058;2023-03-23T12:39:35;12.35;;;2.00;;
67278;SDS011;54193;53.746;10.058;2023-03-23T12:48:41;9.40;;;2.00;;
67278;SDS011;54193;53.746;10.058;2023-03-23T12:54:34;8.80;;;2.28;;
67278;SDS011;54193;53.746;10.058;2023-03-23T13:09:36;11.38;;;2.88;;
67278;SDS011;54193;53.746;10.058;2023-03-23T13:12:23;8.67;;;2.93;;
67278;SDS011;54193;53.746;10.058;2023-03-23T13:15:26;8.65;;;3.00;;
67278;SDS011;54193;53.746;10.058;2023-03-23T13:21:35;8.63;;;2.20;;
67278;SDS011;54193;53.746;10.058;2023-03-23T13:24:29;11.68;;;2.83;;
67278;SDS011;54193;53.746;10.058;2023-03-23T13:27:22;8.27;;;3.03;;
67278;SDS011;54193;53.746;10.058;2023-03-23T13:30:19;9.30;;;2.83;;
67278;SDS011;54193;53.746;10.058;2023-03-23T13:33:10;8.20;;;3.05;;
67278;SDS011;54193;53.746;10.058;2023-03-23T13:36:02;9.40;;;3.00;;
67278;SDS011;54193;53.746;10.058;2023-03-23T13:38:54;11.27;;;3.63;;
67278;SDS011;54193;53.746;10.058;2023-03-23T13:41:58;10.70;;;3.47;;
67278;SDS011;54193;53.746;10.058;2023-03-23T13:47:39;7.25;;;2.00;;
67278;SDS011;54193;53.746;10.058;2023-03-23T13:50:27;3.73;;;1.30;;
67278;SDS011;54193;53.746;10.058;2023-03-23T13:53:22;3.40;;;1.40;;
67278;SDS011;54193;53.746;10.058;2023-03-23T13:56:19;4.05;;;1.20;;
67278;SDS011;54193;53.746;10.058;2023-03-23T13:59:13;4.82;;;1.27;;
67278;SDS011;54193;53.746;10.058;2023-03-23T14:02:27;5.47;;;1.95;;
67278;SDS011;54193;53.746;10.058;2023-03-23T14:08:19;7.43;;;2.28;;
67278;SDS011;54193;53.746;10.058;2023-03-23T14:11:11;7.13;;;2.17;;
67278;SDS011;54193;53.746;10.058;2023-03-23T14:14:03;6.30;;;2.20;;
67278;SDS011;54193;53.746;10.058;2023-03-23T14:17:16;6.93;;;2.20;;
67278;SDS011;54193;53.746;10.058;2023-03-23T14:20:04;7.53;;;2.10;;
67278;SDS011;54193;53.746;10.058;2023-03-23T14:22:54;6.70;;;1.90;;
67278;SDS011;54193;53.746;10.058;2023-03-23T14:25:41;7.38;;;1.90;;
67278;SDS011;54193;53.746;10.058;2023-03-23T14:28:27;6.25;;;1.90;;
67278;SDS011;54193;53.746;10.058;2023-03-23T14:31:17;6.25;;;1.80;;
67278;SDS011;54193;53.746;10.058;2023-03-23T14:34:12;5.53;;;2.00;;
67278;SDS011;54193;53.746;10.058;2023-03-23T14:37:00;10.15;;;2.30;;
67278;SDS011;54193;53.746;10.058;2023-03-23T14:39:47;10.43;;;1.90;;
67278;SDS011;54193;53.746;10.058;2023-03-23T14:42:35;8.25;;;2.03;;
67278;SDS011;54193;53.746;10.058;2023-03-23T14:45:22;5.18;;;1.92;;
67278;SDS011;54193;53.746;10.058;2023-03-23T14:48:10;6.87;;;1.90;;
67278;SDS011;54193;53.746;10.058;2023-03-23T14:50:59;6.00;;;1.80;;
67278;SDS011;54193;53.746;10.058;2023-03-23T14:53:50;5.78;;;1.80;;
67278;SDS011;54193;53.746;10.058;2023-03-23T14:56:38;5.32;;;1.70;;
67278;SDS011;54193;53.746;10.058;2023-03-23T14:59:26;5.05;;;1.90;;
67278;SDS011;54193;53.746;10.058;2023-03-23T15:02:31;6.65;;;1.90;;
67278;SDS011;54193;53.746;10.058;2023-03-23T15:05:31;6.88;;;1.67;;
67278;SDS011;54193;53.746;10.058;2023-03-23T15:08:27;8.90;;;1.83;;
67278;SDS011;54193;53.746;10.058;2023-03-23T15:14:09;7.93;;;1.90;;
67278;SDS011;54193;53.746;10.058;2023-03-23T15:17:01;6.17;;;2.20;;
67278;SDS011;54193;53.746;10.058;2023-03-23T15:19:47;8.63;;;2.03;;
67278;SDS011;54193;53.746;10.058;2023-03-23T15:22:33;8.15;;;2.20;;
67278;SDS011;54193;53.746;10.058;2023-03-23T15:28:14;7.78;;;2.42;;
67278;SDS011;54193;53.746;10.058;2023-03-23T15:31:03;6.60;;;2.00;;
67278;SDS011;54193;53.746;10.058;2023-03-23T15:33:54;8.07;;;2.15;;
67278;SDS011;54193;53.746;10.058;2023-03-23T15:36:42;6.90;;;2.10;;
67278;SDS011;54193;53.746;10.058;2023-03-23T15:39:29;7.47;;;2.03;;
67278;SDS011;54193;53.746;10.058;2023-03-23T15:42:23;6.88;;;1.90;;
67278;SDS011;54193;53.746;10.058;2023-03-23T15:45:25;5.47;;;2.00;;
67278;SDS011;54193;53.746;10.058;2023-03-23T15:48:12;6.47;;;2.00;;
67278;SDS011;54193;53.746;10.058;2023-03-23T15:50:59;7.72;;;1.85;;
67278;SDS011;54193;53.746;10.058;2023-03-23T15:53:48;11.90;;;2.42;;
67278;SDS011;54193;53.746;10.058;2023-03-23T15:56:35;5.18;;;1.90;;
67278;SDS011;54193;53.746;10.058;2023-03-23T15:59:21;5.93;;;1.92;;
67278;SDS011;54193;53.746;10.058;2023-03-23T16:02:10;5.93;;;1.90;;
67278;SDS011;54193;53.746;10.058;2023-03-23T16:05:02;5.87;;;2.20;;
67278;SDS011;54193;53.746;10.058;2023-03-23T16:07:49;5.10;;;1.70;;
67278;SDS011;54193;53.746;10.058;2023-03-23T16:10:35;6.00;;;2.00;;
67278;SDS011;54193;53.746;10.058;2023-03-23T16:13:21;5.30;;;1.70;;
67278;SDS011;54193;53.746;10.058;2023-03-23T16:16:12;6.53;;;2.25;;
67278;SDS011;54193;53.746;10.058;2023-03-23T16:19:00;6.70;;;2.10;;
67278;SDS011;54193;53.746;10.058;2023-03-23T16:21:46;7.97;;;2.17;;
67278;SDS011;54193;53.746;10.058;2023-03-23T16:24:32;7.22;;;2.70;;
67278;SDS011;54193;53.746;10.058;2023-03-23T16:27:24;8.32;;;2.35;;
67278;SDS011;54193;53.746;10.058;2023-03-23T16:30:23;6.20;;;2.83;;
67278;SDS011;54193;53.746;10.058;2023-03-23T16:33:11;7.07;;;2.80;;
67278;SDS011;54193;53.746;10.058;2023-03-23T16:35:57;7.60;;;2.50;;
67278;SDS011;54193;53.746;10.058;2023-03-23T16:38:43;7.40;;;2.45;;
67278;SDS011;54193;53.746;10.058;2023-03-23T16:41:28;9.30;;;2.90;;
67278;SDS011;54193;53.746;10.058;2023-03-23T16:44:15;5.38;;;2.20;;
67278;SDS011;54193;53.746;10.058;2023-03-23T16:47:00;6.65;;;2.20;;
67278;SDS011;54193;53.746;10.058;2023-03-23T16:49:46;7.18;;;2.22;;
67278;SDS011;54193;53.746;10.058;2023-03-23T16:52:32;6.95;;;2.38;;
67278;SDS011;54193;53.746;10.058;2023-03-23T16:55:18;6.13;;;2.35;;
67278;SDS011;54193;53.746;10.058;2023-03-23T16:58:04;6.22;;;2.10;;
67278;SDS011;54193;53.746;10.058;2023-03-23T17:00:51;5.57;;;2.27;;
67278;SDS011;54193;53.746;10.058;2023-03-23T17:03:37;6.85;;;2.30;;
67278;SDS011;54193;53.746;10.058;2023-03-23T17:06:23;8.13;;;2.40;;
67278;SDS011;54193;53.746;10.058;2023-03-23T17:09:09;9.13;;;2.10;;
67278;SDS011;54193;53.746;10.058;2023-03-23T17:11:56;8.88;;;2.22;;
67278;SDS011;54193;53.746;10.058;2023-03-23T17:14:43;7.47;;;2.10;;
67278;SDS011;54193;53.746;10.058;2023-03-23T17:17:29;10.50;;;2.60;;
67278;SDS011;54193;53.746;10.058;2023-03-23T17:20:15;6.35;;;2.30;;
67278;SDS011;54193;53.746;10.058;2023-03-23T17:23:02;7.00;;;2.08;;
67278;SDS011;54193;53.746;10.058;2023-03-23T17:25:51;7.00;;;2.30;;
67278;SDS011;54193;53.746;10.058;2023-03-23T17:28:38;6.43;;;2.23;;
67278;SDS011;54193;53.746;10.058;2023-03-23T17:31:23;6.00;;;2.35;;
67278;SDS011;54193;53.746;10.058;2023-03-23T17:34:09;7.00;;;2.50;;
67278;SDS011;54193;53.746;10.058;2023-03-23T17:36:56;6.37;;;2.20;;
67278;SDS011;54193;53.746;10.058;2023-03-23T17:39:41;5.47;;;2.42;;
67278;SDS011;54193;53.746;10.058;2023-03-23T17:42:28;7.75;;;2.90;;
67278;SDS011;54193;53.746;10.058;2023-03-23T17:45:13;8.82;;;2.58;;
67278;SDS011;54193;53.746;10.058;2023-03-23T17:47:59;7.30;;;2.60;;
67278;SDS011;54193;53.746;10.058;2023-03-23T17:50:46;8.40;;;3.42;;
67278;SDS011;54193;53.746;10.058;2023-03-23T17:53:33;9.00;;;2.90;;
67278;SDS011;54193;53.746;10.058;2023-03-23T17:56:22;7.30;;;3.10;;
67278;SDS011;54193;53.746;10.058;2023-03-23T17:59:08;11.05;;;3.17;;
67278;SDS011;54193;53.746;10.058;2023-03-23T18:01:53;8.60;;;3.00;;